Terminal Aerodrome Forecast
Issued by NWS Boston, MA

Home | Current Version | Previous Version | Text Only | Print | Product List | Glossary On
Versions: 1 2 3 4 5 6 7 8 9 10 11 12 13 14 15 16 17 18 19 20 21 22 23 24 25
000
FTUS41 KBOX 050304 AAA
TAFBDL
TAF AMD
KBDL 050304Z 0503/0606 02010KT P6SM -RADZ BKN015 OVC020
     FM051000 01009KT P6SM -DZ VCSH OVC015
     FM060300 01005KT P6SM -DZ VCSH OVC015=

USA.gov is the U.S. government's official web portal to all federal, state and local government web resources and services.